sensor_id;sensor_type;location;lat;lon;timestamp;temperature;humidity
19168;DHT22;9716;53.114;18.040;2022-12-07T00:01:47;4.60;99.90
19168;DHT22;9716;53.114;18.040;2022-12-07T00:04:17;4.50;99.90
19168;DHT22;9716;53.114;18.040;2022-12-07T00:06:50;4.50;99.90
19168;DHT22;9716;53.114;18.040;2022-12-07T00:09:21;4.50;99.90
19168;DHT22;9716;53.114;18.040;2022-12-07T00:11:50;4.60;99.90
19168;DHT22;9716;53.114;18.040;2022-12-07T00:14:19;4.50;99.90
19168;DHT22;9716;53.114;18.040;2022-12-07T00:16:49;4.60;99.90
19168;DHT22;9716;53.114;18.040;2022-12-07T00:19:19;4.50;99.90
19168;DHT22;9716;53.114;18.040;2022-12-07T00:21:47;4.50;99.90
19168;DHT22;9716;53.114;18.040;2022-12-07T00:24:16;4.50;99.90
19168;DHT22;9716;53.114;18.040;2022-12-07T00:26:46;4.50;99.90
19168;DHT22;9716;53.114;18.040;2022-12-07T00:29:17;4.50;99.90
19168;DHT22;9716;53.114;18.040;2022-12-07T00:31:45;4.50;99.90
19168;DHT22;9716;53.114;18.040;2022-12-07T00:34:16;4.50;99.90
19168;DHT22;9716;53.114;18.040;2022-12-07T00:36:45;4.40;99.90
19168;DHT22;9716;53.114;18.040;2022-12-07T00:39:14;4.40;99.90
19168;DHT22;9716;53.114;18.040;2022-12-07T00:41:42;4.50;99.90
19168;DHT22;9716;53.114;18.040;2022-12-07T00:44:12;4.50;99.90
19168;DHT22;9716;53.114;18.040;2022-12-07T00:46:41;4.40;99.90
19168;DHT22;9716;53.114;18.040;2022-12-07T00:49:10;4.50;99.90
19168;DHT22;9716;53.114;18.040;2022-12-07T00:51:38;4.40;99.90
19168;DHT22;9716;53.114;18.040;2022-12-07T00:54:07;4.40;99.90
19168;DHT22;9716;53.114;18.040;2022-12-07T00:56:35;4.50;99.90
19168;DHT22;9716;53.114;18.040;2022-12-07T00:59:04;4.40;99.90
19168;DHT22;9716;53.114;18.040;2022-12-07T01:01:36;4.40;99.90
19168;DHT22;9716;53.114;18.040;2022-12-07T01:04:05;4.40;99.90
19168;DHT22;9716;53.114;18.040;2022-12-07T01:06:33;4.40;99.90
19168;DHT22;9716;53.114;18.040;2022-12-07T01:09:02;4.40;99.90
19168;DHT22;9716;53.114;18.040;2022-12-07T01:11:31;4.40;99.90
19168;DHT22;9716;53.114;18.040;2022-12-07T01:14:01;4.40;99.90
19168;DHT22;9716;53.114;18.040;2022-12-07T01:16:30;4.30;99.90
19168;DHT22;9716;53.114;18.040;2022-12-07T01:19:01;4.40;99.90
19168;DHT22;9716;53.114;18.040;2022-12-07T01:21:33;4.40;99.90
19168;DHT22;9716;53.114;18.040;2022-12-07T01:24:06;4.40;99.90
19168;DHT22;9716;53.114;18.040;2022-12-07T01:26:35;4.40;99.90
19168;DHT22;9716;53.114;18.040;2022-12-07T01:29:04;4.50;99.90
19168;DHT22;9716;53.114;18.040;2022-12-07T01:31:33;4.40;99.90
19168;DHT22;9716;53.114;18.040;2022-12-07T01:34:03;4.50;99.90
19168;DHT22;9716;53.114;18.040;2022-12-07T01:36:33;4.40;99.90
19168;DHT22;9716;53.114;18.040;2022-12-07T01:39:04;4.40;99.90
19168;DHT22;9716;53.114;18.040;2022-12-07T01:41:35;4.40;99.90
19168;DHT22;9716;53.114;18.040;2022-12-07T01:44:21;4.40;99.90
19168;DHT22;9716;53.114;18.040;2022-12-07T01:46:50;4.40;99.90
19168;DHT22;9716;53.114;18.040;2022-12-07T01:49:26;4.40;99.90
19168;DHT22;9716;53.114;18.040;2022-12-07T01:52:01;4.40;99.90
19168;DHT22;9716;53.114;18.040;2022-12-07T01:54:33;4.40;99.90
19168;DHT22;9716;53.114;18.040;2022-12-07T01:57:03;4.40;99.90
19168;DHT22;9716;53.114;18.040;2022-12-07T01:59:33;4.40;99.90
19168;DHT22;9716;53.114;18.040;2022-12-07T02:02:02;4.40;99.90
19168;DHT22;9716;53.114;18.040;2022-12-07T02:04:35;4.40;99.90
19168;DHT22;9716;53.114;18.040;2022-12-07T02:07:05;4.40;99.90
19168;DHT22;9716;53.114;18.040;2022-12-07T02:09:34;4.40;99.90
19168;DHT22;9716;53.114;18.040;2022-12-07T02:12:03;4.40;99.90
19168;DHT22;9716;53.114;18.040;2022-12-07T02:14:32;4.40;99.90
19168;DHT22;9716;53.114;18.040;2022-12-07T02:17:07;4.30;99.90
19168;DHT22;9716;53.114;18.040;2022-12-07T02:20:13;4.40;99.90
19168;DHT22;9716;53.114;18.040;2022-12-07T02:23:18;4.40;99.90
19168;DHT22;9716;53.114;18.040;2022-12-07T02:26:02;4.40;99.90
19168;DHT22;9716;53.114;18.040;2022-12-07T02:28:37;4.40;99.90
19168;DHT22;9716;53.114;18.040;2022-12-07T02:31:14;4.40;99.90
19168;DHT22;9716;53.114;18.040;2022-12-07T02:33:48;4.40;99.90
19168;DHT22;9716;53.114;18.040;2022-12-07T02:36:21;4.40;99.90
19168;DHT22;9716;53.114;18.040;2022-12-07T02:38:58;4.40;99.90
19168;DHT22;9716;53.114;18.040;2022-12-07T02:41:31;4.40;99.90
19168;DHT22;9716;53.114;18.040;2022-12-07T02:44:03;4.40;99.90
19168;DHT22;9716;53.114;18.040;2022-12-07T02:46:38;4.40;99.90
19168;DHT22;9716;53.114;18.040;2022-12-07T02:49:08;4.40;99.90
19168;DHT22;9716;53.114;18.040;2022-12-07T02:51:39;4.40;99.90
19168;DHT22;9716;53.114;18.040;2022-12-07T02:54:11;4.40;99.90
19168;DHT22;9716;53.114;18.040;2022-12-07T02:56:48;4.40;99.90
19168;DHT22;9716;53.114;18.040;2022-12-07T02:59:25;4.40;99.90
19168;DHT22;9716;53.114;18.040;2022-12-07T03:02:05;4.40;99.90
19168;DHT22;9716;53.114;18.040;2022-12-07T03:04:44;4.40;99.90
19168;DHT22;9716;53.114;18.040;2022-12-07T03:07:18;4.50;99.90
19168;DHT22;9716;53.114;18.040;2022-12-07T03:09:54;4.50;99.90
19168;DHT22;9716;53.114;18.040;2022-12-07T03:12:31;4.50;99.90
19168;DHT22;9716;53.114;18.040;2022-12-07T03:15:04;4.50;99.90
19168;DHT22;9716;53.114;18.040;2022-12-07T03:17:37;4.50;99.90
19168;DHT22;9716;53.114;18.040;2022-12-07T03:20:09;4.50;99.90
19168;DHT22;9716;53.114;18.040;2022-12-07T03:22:41;4.50;99.90
19168;DHT22;9716;53.114;18.040;2022-12-07T03:25:13;4.50;99.90
19168;DHT22;9716;53.114;18.040;2022-12-07T03:27:48;4.50;99.90
19168;DHT22;9716;53.114;18.040;2022-12-07T03:30:21;4.60;99.90
19168;DHT22;9716;53.114;18.040;2022-12-07T03:32:55;4.60;99.90
19168;DHT22;9716;53.114;18.040;2022-12-07T03:35:27;4.50;99.90
19168;DHT22;9716;53.114;18.040;2022-12-07T03:37:59;4.40;99.90
19168;DHT22;9716;53.114;18.040;2022-12-07T03:40:30;4.50;99.90
19168;DHT22;9716;53.114;18.040;2022-12-07T03:43:01;4.60;99.90
19168;DHT22;9716;53.114;18.040;2022-12-07T03:45:36;4.60;99.90
19168;DHT22;9716;53.114;18.040;2022-12-07T03:48:12;4.60;99.90
19168;DHT22;9716;53.114;18.040;2022-12-07T03:50:50;4.50;99.90
19168;DHT22;9716;53.114;18.040;2022-12-07T03:53:26;4.50;99.90
19168;DHT22;9716;53.114;18.040;2022-12-07T03:55:58;4.50;99.90
19168;DHT22;9716;53.114;18.040;2022-12-07T03:58:27;4.50;99.90
19168;DHT22;9716;53.114;18.040;2022-12-07T04:00:57;4.50;99.90
19168;DHT22;9716;53.114;18.040;2022-12-07T04:03:27;4.50;99.90
19168;DHT22;9716;53.114;18.040;2022-12-07T04:05:55;4.50;99.90
19168;DHT22;9716;53.114;18.040;2022-12-07T04:08:25;4.50;99.90
19168;DHT22;9716;53.114;18.040;2022-12-07T04:10:54;4.50;99.90
19168;DHT22;9716;53.114;18.040;2022-12-07T04:13:22;4.50;99.90
19168;DHT22;9716;53.114;18.040;2022-12-07T04:15:51;4.50;99.90
19168;DHT22;9716;53.114;18.040;2022-12-07T04:18:19;4.50;99.90
19168;DHT22;9716;53.114;18.040;2022-12-07T04:20:49;4.40;99.90
19168;DHT22;9716;53.114;18.040;2022-12-07T04:23:18;4.50;99.90
19168;DHT22;9716;53.114;18.040;2022-12-07T04:25:48;4.40;99.90
19168;DHT22;9716;53.114;18.040;2022-12-07T04:28:16;4.40;99.90
19168;DHT22;9716;53.114;18.040;2022-12-07T04:30:45;4.40;99.90
19168;DHT22;9716;53.114;18.040;2022-12-07T04:33:14;4.40;99.90
19168;DHT22;9716;53.114;18.040;2022-12-07T04:35:42;4.40;99.90
19168;DHT22;9716;53.114;18.040;2022-12-07T04:38:12;4.40;99.90
19168;DHT22;9716;53.114;18.040;2022-12-07T04:40:41;4.40;99.90
19168;DHT22;9716;53.114;18.040;2022-12-07T04:43:09;4.40;99.90
19168;DHT22;9716;53.114;18.040;2022-12-07T04:45:38;4.30;99.90
19168;DHT22;9716;53.114;18.040;2022-12-07T04:48:06;4.30;99.90
19168;DHT22;9716;53.114;18.040;2022-12-07T04:50:35;4.30;99.90
19168;DHT22;9716;53.114;18.040;2022-12-07T04:53:13;4.20;99.90
19168;DHT22;9716;53.114;18.040;2022-12-07T04:55:41;4.20;99.90
19168;DHT22;9716;53.114;18.040;2022-12-07T04:58:10;4.10;99.90
19168;DHT22;9716;53.114;18.040;2022-12-07T05:00:39;4.10;99.90
19168;DHT22;9716;53.114;18.040;2022-12-07T05:03:08;4.10;99.90
19168;DHT22;9716;53.114;18.040;2022-12-07T05:05:39;4.00;99.90
19168;DHT22;9716;53.114;18.040;2022-12-07T05:08:08;4.00;99.90
19168;DHT22;9716;53.114;18.040;2022-12-07T05:10:37;3.90;99.90
19168;DHT22;9716;53.114;18.040;2022-12-07T05:13:06;3.90;99.90
19168;DHT22;9716;53.114;18.040;2022-12-07T05:15:34;3.90;99.90
19168;DHT22;9716;53.114;18.040;2022-12-07T05:18:03;3.80;99.90
19168;DHT22;9716;53.114;18.040;2022-12-07T05:20:31;3.80;99.90
19168;DHT22;9716;53.114;18.040;2022-12-07T05:23:08;3.70;99.90
19168;DHT22;9716;53.114;18.040;2022-12-07T05:25:38;3.70;99.90
19168;DHT22;9716;53.114;18.040;2022-12-07T05:28:07;3.80;99.90
19168;DHT22;9716;53.114;18.040;2022-12-07T05:30:35;3.80;99.90
19168;DHT22;9716;53.114;18.040;2022-12-07T05:33:04;3.80;99.90
19168;DHT22;9716;53.114;18.040;2022-12-07T05:35:33;3.70;99.90
19168;DHT22;9716;53.114;18.040;2022-12-07T05:38:02;3.70;99.90
19168;DHT22;9716;53.114;18.040;2022-12-07T05:40:30;3.70;99.90
19168;DHT22;9716;53.114;18.040;2022-12-07T05:43:00;3.60;99.90
19168;DHT22;9716;53.114;18.040;2022-12-07T05:45:31;3.60;99.90
19168;DHT22;9716;53.114;18.040;2022-12-07T05:48:00;3.60;99.90
19168;DHT22;9716;53.114;18.040;2022-12-07T05:50:28;3.50;99.90
19168;DHT22;9716;53.114;18.040;2022-12-07T05:52:57;3.50;99.90
19168;DHT22;9716;53.114;18.040;2022-12-07T05:55:25;3.40;99.90
19168;DHT22;9716;53.114;18.040;2022-12-07T05:57:54;3.50;99.90
19168;DHT22;9716;53.114;18.040;2022-12-07T06:00:41;3.50;99.90
19168;DHT22;9716;53.114;18.040;2022-12-07T06:03:16;3.50;99.90
19168;DHT22;9716;53.114;18.040;2022-12-07T06:05:45;3.50;99.90
19168;DHT22;9716;53.114;18.040;2022-12-07T06:08:14;3.40;99.90
19168;DHT22;9716;53.114;18.040;2022-12-07T06:10:43;3.40;99.90
19168;DHT22;9716;53.114;18.040;2022-12-07T06:13:11;3.40;99.90
19168;DHT22;9716;53.114;18.040;2022-12-07T06:15:40;3.40;99.90
19168;DHT22;9716;53.114;18.040;2022-12-07T06:18:09;3.40;99.90
19168;DHT22;9716;53.114;18.040;2022-12-07T06:20:37;3.50;99.90
19168;DHT22;9716;53.114;18.040;2022-12-07T06:23:06;3.40;99.90
19168;DHT22;9716;53.114;18.040;2022-12-07T06:25:35;3.40;99.90
19168;DHT22;9716;53.114;18.040;2022-12-07T06:28:03;3.40;99.90
19168;DHT22;9716;53.114;18.040;2022-12-07T06:30:32;3.40;99.90
19168;DHT22;9716;53.114;18.040;2022-12-07T06:33:02;3.40;99.90
19168;DHT22;9716;53.114;18.040;2022-12-07T06:35:32;3.30;99.90
19168;DHT22;9716;53.114;18.040;2022-12-07T06:38:00;3.30;99.90
19168;DHT22;9716;53.114;18.040;2022-12-07T06:40:29;3.20;99.90
19168;DHT22;9716;53.114;18.040;2022-12-07T06:42:58;3.20;99.90
19168;DHT22;9716;53.114;18.040;2022-12-07T06:45:26;3.10;99.90
19168;DHT22;9716;53.114;18.040;2022-12-07T06:47:55;3.10;99.90
19168;DHT22;9716;53.114;18.040;2022-12-07T06:50:25;3.00;99.90
19168;DHT22;9716;53.114;18.040;2022-12-07T06:52:53;3.00;99.90
19168;DHT22;9716;53.114;18.040;2022-12-07T06:55:22;3.00;99.90
19168;DHT22;9716;53.114;18.040;2022-12-07T06:57:51;3.00;99.90
19168;DHT22;9716;53.114;18.040;2022-12-07T07:00:20;3.00;99.90
19168;DHT22;9716;53.114;18.040;2022-12-07T07:02:49;3.00;99.90
19168;DHT22;9716;53.114;18.040;2022-12-07T07:05:18;3.00;99.90
19168;DHT22;9716;53.114;18.040;2022-12-07T07:07:50;3.00;99.90
19168;DHT22;9716;53.114;18.040;2022-12-07T07:10:39;3.00;99.90
19168;DHT22;9716;53.114;18.040;2022-12-07T07:13:09;3.00;99.90
19168;DHT22;9716;53.114;18.040;2022-12-07T07:15:37;3.00;99.90
19168;DHT22;9716;53.114;18.040;2022-12-07T07:18:06;3.00;99.90
19168;DHT22;9716;53.114;18.040;2022-12-07T07:20:35;3.00;99.90
19168;DHT22;9716;53.114;18.040;2022-12-07T07:23:05;3.00;99.90
19168;DHT22;9716;53.114;18.040;2022-12-07T07:25:34;3.00;99.90
19168;DHT22;9716;53.114;18.040;2022-12-07T07:28:03;3.00;99.90
19168;DHT22;9716;53.114;18.040;2022-12-07T07:30:32;3.00;99.90
19168;DHT22;9716;53.114;18.040;2022-12-07T07:33:02;3.10;99.90
19168;DHT22;9716;53.114;18.040;2022-12-07T07:35:31;3.10;99.90
19168;DHT22;9716;53.114;18.040;2022-12-07T07:38:01;3.20;99.90
19168;DHT22;9716;53.114;18.040;2022-12-07T07:40:33;3.10;99.90
19168;DHT22;9716;53.114;18.040;2022-12-07T07:43:03;3.20;99.90
19168;DHT22;9716;53.114;18.040;2022-12-07T07:45:31;3.20;99.90
19168;DHT22;9716;53.114;18.040;2022-12-07T07:48:00;3.20;99.90
19168;DHT22;9716;53.114;18.040;2022-12-07T07:50:28;3.30;99.90
19168;DHT22;9716;53.114;18.040;2022-12-07T07:52:57;3.30;99.90
19168;DHT22;9716;53.114;18.040;2022-12-07T07:55:26;3.30;99.90
19168;DHT22;9716;53.114;18.040;2022-12-07T07:57:56;3.30;99.90
19168;DHT22;9716;53.114;18.040;2022-12-07T08:00:24;3.30;99.90
19168;DHT22;9716;53.114;18.040;2022-12-07T08:02:53;3.30;99.90
19168;DHT22;9716;53.114;18.040;2022-12-07T08:05:22;3.30;99.90
19168;DHT22;9716;53.114;18.040;2022-12-07T08:07:50;3.30;99.90
19168;DHT22;9716;53.114;18.040;2022-12-07T08:10:19;3.40;99.90
19168;DHT22;9716;53.114;18.040;2022-12-07T08:12:47;3.40;99.90
19168;DHT22;9716;53.114;18.040;2022-12-07T08:15:37;3.40;99.90
19168;DHT22;9716;53.114;18.040;2022-12-07T08:18:07;3.40;99.90
19168;DHT22;9716;53.114;18.040;2022-12-07T08:20:36;3.40;99.90
19168;DHT22;9716;53.114;18.040;2022-12-07T08:23:06;3.50;99.90
19168;DHT22;9716;53.114;18.040;2022-12-07T08:25:35;3.50;99.90
19168;DHT22;9716;53.114;18.040;2022-12-07T08:28:03;3.50;99.90
19168;DHT22;9716;53.114;18.040;2022-12-07T08:30:32;3.60;99.90
19168;DHT22;9716;53.114;18.040;2022-12-07T08:33:03;3.70;99.90
19168;DHT22;9716;53.114;18.040;2022-12-07T08:35:32;3.70;99.90
19168;DHT22;9716;53.114;18.040;2022-12-07T08:38:01;3.80;99.90
19168;DHT22;9716;53.114;18.040;2022-12-07T08:40:30;3.90;99.90
19168;DHT22;9716;53.114;18.040;2022-12-07T08:42:59;4.00;99.90
19168;DHT22;9716;53.114;18.040;2022-12-07T08:45:27;4.00;99.90
19168;DHT22;9716;53.114;18.040;2022-12-07T08:48:03;4.00;99.90
19168;DHT22;9716;53.114;18.040;2022-12-07T08:50:34;4.00;99.90
19168;DHT22;9716;53.114;18.040;2022-12-07T08:53:05;4.00;99.90
19168;DHT22;9716;53.114;18.040;2022-12-07T08:55:34;4.00;99.90
19168;DHT22;9716;53.114;18.040;2022-12-07T08:58:03;4.00;99.90
19168;DHT22;9716;53.114;18.040;2022-12-07T09:00:32;4.10;99.90
19168;DHT22;9716;53.114;18.040;2022-12-07T09:03:00;4.10;99.90
19168;DHT22;9716;53.114;18.040;2022-12-07T09:05:32;4.10;99.90
19168;DHT22;9716;53.114;18.040;2022-12-07T09:08:02;4.10;99.90
19168;DHT22;9716;53.114;18.040;2022-12-07T09:10:30;4.20;99.90
19168;DHT22;9716;53.114;18.040;2022-12-07T09:12:59;4.20;99.90
19168;DHT22;9716;53.114;18.040;2022-12-07T09:15:28;4.30;99.90
19168;DHT22;9716;53.114;18.040;2022-12-07T09:17:57;4.30;99.90
19168;DHT22;9716;53.114;18.040;2022-12-07T09:20:26;4.30;99.90
19168;DHT22;9716;53.114;18.040;2022-12-07T09:22:56;4.50;99.90
19168;DHT22;9716;53.114;18.040;2022-12-07T09:25:25;4.50;99.90
19168;DHT22;9716;53.114;18.040;2022-12-07T09:27:57;4.50;99.90
19168;DHT22;9716;53.114;18.040;2022-12-07T09:30:27;4.60;99.90
19168;DHT22;9716;53.114;18.040;2022-12-07T09:32:56;4.60;99.90
19168;DHT22;9716;53.114;18.040;2022-12-07T09:35:25;4.70;99.90
19168;DHT22;9716;53.114;18.040;2022-12-07T09:37:55;4.70;99.90
19168;DHT22;9716;53.114;18.040;2022-12-07T09:40:24;4.70;99.90
19168;DHT22;9716;53.114;18.040;2022-12-07T09:42:54;4.80;99.90
19168;DHT22;9716;53.114;18.040;2022-12-07T09:45:24;4.80;99.90
19168;DHT22;9716;53.114;18.040;2022-12-07T09:47:54;4.90;99.90
19168;DHT22;9716;53.114;18.040;2022-12-07T09:50:25;4.90;99.90
19168;DHT22;9716;53.114;18.040;2022-12-07T09:53:02;4.90;99.90
19168;DHT22;9716;53.114;18.040;2022-12-07T09:55:34;5.00;99.90
19168;DHT22;9716;53.114;18.040;2022-12-07T09:58:04;5.00;99.90
19168;DHT22;9716;53.114;18.040;2022-12-07T10:00:32;5.00;99.90
19168;DHT22;9716;53.114;18.040;2022-12-07T10:03:02;5.00;99.90
19168;DHT22;9716;53.114;18.040;2022-12-07T10:05:34;5.00;99.90
19168;DHT22;9716;53.114;18.040;2022-12-07T10:08:07;5.00;99.90
19168;DHT22;9716;53.114;18.040;2022-12-07T10:10:36;5.00;99.90
19168;DHT22;9716;53.114;18.040;2022-12-07T10:13:07;5.00;99.90
19168;DHT22;9716;53.114;18.040;2022-12-07T10:15:57;4.90;99.90
19168;DHT22;9716;53.114;18.040;2022-12-07T10:18:35;4.90;99.90
19168;DHT22;9716;53.114;18.040;2022-12-07T10:21:12;4.90;99.90
19168;DHT22;9716;53.114;18.040;2022-12-07T10:23:59;4.90;99.90
19168;DHT22;9716;53.114;18.040;2022-12-07T10:26:31;4.90;99.90
19168;DHT22;9716;53.114;18.040;2022-12-07T10:29:02;4.90;99.90
19168;DHT22;9716;53.114;18.040;2022-12-07T10:31:32;4.80;99.90
19168;DHT22;9716;53.114;18.040;2022-12-07T10:34:20;4.80;99.90
19168;DHT22;9716;53.114;18.040;2022-12-07T10:36:51;4.80;99.90
19168;DHT22;9716;53.114;18.040;2022-12-07T10:39:22;4.80;99.90
19168;DHT22;9716;53.114;18.040;2022-12-07T10:41:55;4.80;99.90
19168;DHT22;9716;53.114;18.040;2022-12-07T10:44:27;4.80;99.90
19168;DHT22;9716;53.114;18.040;2022-12-07T10:47:21;4.80;99.90
19168;DHT22;9716;53.114;18.040;2022-12-07T10:53:06;4.80;99.90
19168;DHT22;9716;53.114;18.040;2022-12-07T10:56:01;4.70;99.90
19168;DHT22;9716;53.114;18.040;2022-12-07T10:58:44;4.80;99.90
19168;DHT22;9716;53.114;18.040;2022-12-07T11:01:20;4.80;99.90
19168;DHT22;9716;53.114;18.040;2022-12-07T11:04:02;4.80;99.90
19168;DHT22;9716;53.114;18.040;2022-12-07T11:06:35;4.80;99.90
19168;DHT22;9716;53.114;18.040;2022-12-07T11:12:44;4.80;99.90
19168;DHT22;9716;53.114;18.040;2022-12-07T11:15:18;4.70;99.90
19168;DHT22;9716;53.114;18.040;2022-12-07T11:17:58;4.70;99.90
19168;DHT22;9716;53.114;18.040;2022-12-07T11:20:37;4.70;99.90
19168;DHT22;9716;53.114;18.040;2022-12-07T11:23:16;4.70;99.90
19168;DHT22;9716;53.114;18.040;2022-12-07T11:25:53;4.70;99.90
19168;DHT22;9716;53.114;18.040;2022-12-07T11:28:36;4.70;99.90
19168;DHT22;9716;53.114;18.040;2022-12-07T11:31:14;4.80;99.90
19168;DHT22;9716;53.114;18.040;2022-12-07T11:33:59;4.80;99.90
19168;DHT22;9716;53.114;18.040;2022-12-07T11:36:37;4.80;99.90
19168;DHT22;9716;53.114;18.040;2022-12-07T11:39:23;4.80;99.90
19168;DHT22;9716;53.114;18.040;2022-12-07T11:42:00;4.80;99.90
19168;DHT22;9716;53.114;18.040;2022-12-07T11:44:35;4.80;99.90
19168;DHT22;9716;53.114;18.040;2022-12-07T11:47:07;4.80;99.90
19168;DHT22;9716;53.114;18.040;2022-12-07T11:49:42;4.80;99.90
19168;DHT22;9716;53.114;18.040;2022-12-07T11:52:18;4.70;99.90
19168;DHT22;9716;53.114;18.040;2022-12-07T11:54:52;4.70;99.90
19168;DHT22;9716;53.114;18.040;2022-12-07T11:57:25;4.60;99.90
19168;DHT22;9716;53.114;18.040;2022-12-07T12:00:03;4.60;99.90
19168;DHT22;9716;53.114;18.040;2022-12-07T12:02:36;4.50;99.90
19168;DHT22;9716;53.114;18.040;2022-12-07T12:05:15;4.50;99.90
19168;DHT22;9716;53.114;18.040;2022-12-07T12:07:45;4.50;99.90
19168;DHT22;9716;53.114;18.040;2022-12-07T12:10:44;4.50;99.90
19168;DHT22;9716;53.114;18.040;2022-12-07T12:17:01;4.40;99.90
19168;DHT22;9716;53.114;18.040;2022-12-07T12:19:37;4.40;99.90
19168;DHT22;9716;53.114;18.040;2022-12-07T12:22:13;4.40;99.90
19168;DHT22;9716;53.114;18.040;2022-12-07T12:24:45;4.40;99.90
19168;DHT22;9716;53.114;18.040;2022-12-07T12:27:20;4.40;99.90
19168;DHT22;9716;53.114;18.040;2022-12-07T12:29:54;4.40;99.90
19168;DHT22;9716;53.114;18.040;2022-12-07T12:32:35;4.30;99.90
19168;DHT22;9716;53.114;18.040;2022-12-07T12:35:27;4.30;99.90
19168;DHT22;9716;53.114;18.040;2022-12-07T12:38:32;4.30;99.90
19168;DHT22;9716;53.114;18.040;2022-12-07T12:41:03;4.30;99.90
19168;DHT22;9716;53.114;18.040;2022-12-07T12:43:47;4.30;99.90
19168;DHT22;9716;53.114;18.040;2022-12-07T12:46:49;4.30;99.90
19168;DHT22;9716;53.114;18.040;2022-12-07T12:49:38;4.30;99.90
19168;DHT22;9716;53.114;18.040;2022-12-07T12:55:20;4.40;99.90
19168;DHT22;9716;53.114;18.040;2022-12-07T13:01:36;4.30;99.90
19168;DHT22;9716;53.114;18.040;2022-12-07T13:04:40;4.30;99.90
19168;DHT22;9716;53.114;18.040;2022-12-07T13:07:49;4.30;99.90
19168;DHT22;9716;53.114;18.040;2022-12-07T13:10:40;4.30;99.90
19168;DHT22;9716;53.114;18.040;2022-12-07T13:13:33;4.30;99.90
19168;DHT22;9716;53.114;18.040;2022-12-07T13:22:46;4.30;99.90
19168;DHT22;9716;53.114;18.040;2022-12-07T13:25:28;4.20;99.90
19168;DHT22;9716;53.114;18.040;2022-12-07T13:28:02;4.20;99.90
19168;DHT22;9716;53.114;18.040;2022-12-07T13:30:31;4.20;99.90
19168;DHT22;9716;53.114;18.040;2022-12-07T13:33:03;4.20;99.90
19168;DHT22;9716;53.114;18.040;2022-12-07T13:35:34;4.20;99.90
19168;DHT22;9716;53.114;18.040;2022-12-07T13:38:19;4.10;99.90
19168;DHT22;9716;53.114;18.040;2022-12-07T13:41:04;4.10;99.90
19168;DHT22;9716;53.114;18.040;2022-12-07T13:43:59;4.00;99.90
19168;DHT22;9716;53.114;18.040;2022-12-07T13:46:35;4.00;99.90
19168;DHT22;9716;53.114;18.040;2022-12-07T13:49:21;4.00;99.90
19168;DHT22;9716;53.114;18.040;2022-12-07T13:51:51;4.00;99.90
19168;DHT22;9716;53.114;18.040;2022-12-07T13:54:22;4.00;99.90
19168;DHT22;9716;53.114;18.040;2022-12-07T13:56:52;4.00;99.90
19168;DHT22;9716;53.114;18.040;2022-12-07T13:59:22;4.00;99.90
19168;DHT22;9716;53.114;18.040;2022-12-07T14:01:52;3.90;99.90
19168;DHT22;9716;53.114;18.040;2022-12-07T14:04:32;4.00;99.90
19168;DHT22;9716;53.114;18.040;2022-12-07T14:07:19;4.00;99.90
19168;DHT22;9716;53.114;18.040;2022-12-07T14:09:57;3.90;99.90
19168;DHT22;9716;53.114;18.040;2022-12-07T14:12:29;3.90;99.90
19168;DHT22;9716;53.114;18.040;2022-12-07T14:14:59;3.90;99.90
19168;DHT22;9716;53.114;18.040;2022-12-07T14:17:29;3.90;99.90
19168;DHT22;9716;53.114;18.040;2022-12-07T14:20:00;3.90;99.90
19168;DHT22;9716;53.114;18.040;2022-12-07T14:22:31;3.90;99.90
19168;DHT22;9716;53.114;18.040;2022-12-07T14:25:18;3.80;99.90
19168;DHT22;9716;53.114;18.040;2022-12-07T14:27:52;3.80;99.90
19168;DHT22;9716;53.114;18.040;2022-12-07T14:30:24;3.80;99.90
19168;DHT22;9716;53.114;18.040;2022-12-07T14:32:57;3.80;99.90
19168;DHT22;9716;53.114;18.040;2022-12-07T14:35:26;3.70;99.90
19168;DHT22;9716;53.114;18.040;2022-12-07T14:37:55;3.70;99.90
19168;DHT22;9716;53.114;18.040;2022-12-07T14:40:26;3.70;99.90
19168;DHT22;9716;53.114;18.040;2022-12-07T14:42:58;3.80;99.90
19168;DHT22;9716;53.114;18.040;2022-12-07T14:45:29;3.90;99.90
19168;DHT22;9716;53.114;18.040;2022-12-07T14:47:58;3.80;99.90
19168;DHT22;9716;53.114;18.040;2022-12-07T14:50:50;4.00;99.90
19168;DHT22;9716;53.114;18.040;2022-12-07T14:53:44;4.00;99.90
19168;DHT22;9716;53.114;18.040;2022-12-07T14:56:20;4.10;99.90
19168;DHT22;9716;53.114;18.040;2022-12-07T14:58:49;4.20;99.90
19168;DHT22;9716;53.114;18.040;2022-12-07T15:01:17;4.20;99.90
19168;DHT22;9716;53.114;18.040;2022-12-07T15:03:46;4.20;99.90
19168;DHT22;9716;53.114;18.040;2022-12-07T15:06:16;4.20;99.90
19168;DHT22;9716;53.114;18.040;2022-12-07T15:08:46;4.30;99.90
19168;DHT22;9716;53.114;18.040;2022-12-07T15:11:16;4.30;99.90
19168;DHT22;9716;53.114;18.040;2022-12-07T15:13:47;4.30;99.90
19168;DHT22;9716;53.114;18.040;2022-12-07T15:16:33;4.40;99.90
19168;DHT22;9716;53.114;18.040;2022-12-07T15:19:23;4.30;99.90
19168;DHT22;9716;53.114;18.040;2022-12-07T15:21:55;4.40;99.90
19168;DHT22;9716;53.114;18.040;2022-12-07T15:24:24;4.40;99.90
19168;DHT22;9716;53.114;18.040;2022-12-07T15:26:52;4.40;99.90
19168;DHT22;9716;53.114;18.040;2022-12-07T15:29:23;4.40;99.90
19168;DHT22;9716;53.114;18.040;2022-12-07T15:31:51;4.40;99.90
19168;DHT22;9716;53.114;18.040;2022-12-07T15:34:24;4.40;99.90
19168;DHT22;9716;53.114;18.040;2022-12-07T15:36:53;4.40;99.90
19168;DHT22;9716;53.114;18.040;2022-12-07T15:39:22;4.30;99.90
19168;DHT22;9716;53.114;18.040;2022-12-07T15:41:50;4.40;99.90
19168;DHT22;9716;53.114;18.040;2022-12-07T15:44:19;4.30;99.90
19168;DHT22;9716;53.114;18.040;2022-12-07T15:47:06;4.30;99.90
19168;DHT22;9716;53.114;18.040;2022-12-07T15:49:35;4.30;99.90
19168;DHT22;9716;53.114;18.040;2022-12-07T15:52:03;4.20;99.90
19168;DHT22;9716;53.114;18.040;2022-12-07T15:54:32;4.20;99.90
19168;DHT22;9716;53.114;18.040;2022-12-07T15:57:01;4.20;99.90
19168;DHT22;9716;53.114;18.040;2022-12-07T15:59:30;4.10;99.90
19168;DHT22;9716;53.114;18.040;2022-12-07T16:01:58;4.20;99.90
19168;DHT22;9716;53.114;18.040;2022-12-07T16:04:29;4.10;99.90
19168;DHT22;9716;53.114;18.040;2022-12-07T16:06:57;4.10;99.90
19168;DHT22;9716;53.114;18.040;2022-12-07T16:09:26;4.20;99.90
19168;DHT22;9716;53.114;18.040;2022-12-07T16:11:54;4.10;99.90
19168;DHT22;9716;53.114;18.040;2022-12-07T16:14:23;4.10;99.90
19168;DHT22;9716;53.114;18.040;2022-12-07T16:16:51;4.10;99.90
19168;DHT22;9716;53.114;18.040;2022-12-07T16:19:20;4.10;99.90
19168;DHT22;9716;53.114;18.040;2022-12-07T16:21:50;4.00;99.90
19168;DHT22;9716;53.114;18.040;2022-12-07T16:24:19;4.00;99.90
19168;DHT22;9716;53.114;18.040;2022-12-07T16:26:48;4.00;99.90
19168;DHT22;9716;53.114;18.040;2022-12-07T16:29:17;4.00;99.90
19168;DHT22;9716;53.114;18.040;2022-12-07T16:31:48;3.90;99.90
19168;DHT22;9716;53.114;18.040;2022-12-07T16:34:17;3.90;99.90
19168;DHT22;9716;53.114;18.040;2022-12-07T16:36:46;3.80;99.90
19168;DHT22;9716;53.114;18.040;2022-12-07T16:39:32;3.90;99.90
19168;DHT22;9716;53.114;18.040;2022-12-07T16:42:01;3.60;99.90
19168;DHT22;9716;53.114;18.040;2022-12-07T16:44:30;3.50;99.90